sensor_id;sensor_type;location;lat;lon;timestamp;P1;durP1;ratioP1;P2;durP2;ratioP2
62535;SDS011;63050;47.514;18.920;2023-12-20T00:01:48;31.00;;;17.70;;
62535;SDS011;63050;47.514;18.920;2023-12-20T00:06:49;27.00;;;15.30;;
62535;SDS011;63050;47.514;18.920;2023-12-20T00:11:50;31.40;;;17.00;;
62535;SDS011;63050;47.514;18.920;2023-12-20T00:16:51;27.60;;;15.90;;
62535;SDS011;63050;47.514;18.920;2023-12-20T00:21:52;27.40;;;15.20;;
62535;SDS011;63050;47.514;18.920;2023-12-20T00:26:53;24.50;;;14.70;;
62535;SDS011;63050;47.514;18.920;2023-12-20T00:31:54;26.20;;;14.90;;
62535;SDS011;63050;47.514;18.920;2023-12-20T00:36:55;27.30;;;15.60;;
62535;SDS011;63050;47.514;18.920;2023-12-20T00:41:57;28.40;;;16.70;;
62535;SDS011;63050;47.514;18.920;2023-12-20T00:46:58;24.50;;;15.30;;
62535;SDS011;63050;47.514;18.920;2023-12-20T00:51:59;23.30;;;14.10;;
62535;SDS011;63050;47.514;18.920;2023-12-20T00:57:00;34.90;;;17.50;;
62535;SDS011;63050;47.514;18.920;2023-12-20T01:02:01;28.50;;;17.20;;
62535;SDS011;63050;47.514;18.920;2023-12-20T01:07:02;32.40;;;16.60;;
62535;SDS011;63050;47.514;18.920;2023-12-20T01:12:03;43.50;;;18.60;;
62535;SDS011;63050;47.514;18.920;2023-12-20T01:17:05;32.20;;;19.00;;
62535;SDS011;63050;47.514;18.920;2023-12-20T01:22:05;40.90;;;18.50;;
62535;SDS011;63050;47.514;18.920;2023-12-20T01:27:06;36.10;;;17.70;;
62535;SDS011;63050;47.514;18.920;2023-12-20T01:32:07;40.90;;;20.30;;
62535;SDS011;63050;47.514;18.920;2023-12-20T01:37:09;38.20;;;20.00;;
62535;SDS011;63050;47.514;18.920;2023-12-20T01:42:09;36.60;;;18.10;;
62535;SDS011;63050;47.514;18.920;2023-12-20T01:47:11;35.60;;;20.60;;
62535;SDS011;63050;47.514;18.920;2023-12-20T01:52:12;47.30;;;23.00;;
62535;SDS011;63050;47.514;18.920;2023-12-20T01:57:13;54.50;;;23.20;;
62535;SDS011;63050;47.514;18.920;2023-12-20T02:02:14;45.70;;;20.80;;
62535;SDS011;63050;47.514;18.920;2023-12-20T02:07:15;55.10;;;23.00;;
62535;SDS011;63050;47.514;18.920;2023-12-20T02:12:17;40.50;;;20.00;;
62535;SDS011;63050;47.514;18.920;2023-12-20T02:17:18;44.60;;;22.50;;
62535;SDS011;63050;47.514;18.920;2023-12-20T02:22:19;47.50;;;22.60;;
62535;SDS011;63050;47.514;18.920;2023-12-20T02:27:20;45.10;;;21.20;;
62535;SDS011;63050;47.514;18.920;2023-12-20T02:32:22;40.80;;;22.90;;
62535;SDS011;63050;47.514;18.920;2023-12-20T02:37:26;55.90;;;22.60;;
62535;SDS011;63050;47.514;18.920;2023-12-20T02:42:27;42.90;;;19.40;;
62535;SDS011;63050;47.514;18.920;2023-12-20T02:47:28;44.90;;;20.10;;
62535;SDS011;63050;47.514;18.920;2023-12-20T02:52:30;48.60;;;21.90;;
62535;SDS011;63050;47.514;18.920;2023-12-20T02:57:31;48.20;;;23.10;;
62535;SDS011;63050;47.514;18.920;2023-12-20T03:02:33;45.00;;;22.30;;
62535;SDS011;63050;47.514;18.920;2023-12-20T03:07:36;41.50;;;21.60;;
62535;SDS011;63050;47.514;18.920;2023-12-20T03:12:38;40.60;;;18.90;;
62535;SDS011;63050;47.514;18.920;2023-12-20T03:17:38;44.20;;;21.30;;
62535;SDS011;63050;47.514;18.920;2023-12-20T03:22:39;38.90;;;19.10;;
62535;SDS011;63050;47.514;18.920;2023-12-20T03:27:40;44.60;;;20.50;;
62535;SDS011;63050;47.514;18.920;2023-12-20T03:32:41;37.70;;;18.40;;
62535;SDS011;63050;47.514;18.920;2023-12-20T03:37:42;41.50;;;20.20;;
62535;SDS011;63050;47.514;18.920;2023-12-20T03:42:43;34.80;;;18.90;;
62535;SDS011;63050;47.514;18.920;2023-12-20T03:47:44;43.80;;;21.50;;
62535;SDS011;63050;47.514;18.920;2023-12-20T03:52:45;38.90;;;20.30;;
62535;SDS011;63050;47.514;18.920;2023-12-20T03:57:46;36.80;;;22.10;;
62535;SDS011;63050;47.514;18.920;2023-12-20T04:02:47;40.70;;;21.40;;
62535;SDS011;63050;47.514;18.920;2023-12-20T04:07:48;44.00;;;23.80;;
62535;SDS011;63050;47.514;18.920;2023-12-20T04:12:50;37.70;;;20.30;;
62535;SDS011;63050;47.514;18.920;2023-12-20T04:17:51;39.60;;;23.70;;
62535;SDS011;63050;47.514;18.920;2023-12-20T04:22:53;40.10;;;21.10;;
62535;SDS011;63050;47.514;18.920;2023-12-20T04:27:54;37.20;;;21.90;;
62535;SDS011;63050;47.514;18.920;2023-12-20T04:32:55;37.50;;;21.10;;
62535;SDS011;63050;47.514;18.920;2023-12-20T04:37:57;37.20;;;21.60;;
62535;SDS011;63050;47.514;18.920;2023-12-20T04:42:58;40.20;;;24.50;;
62535;SDS011;63050;47.514;18.920;2023-12-20T04:47:59;41.40;;;21.40;;
62535;SDS011;63050;47.514;18.920;2023-12-20T04:53:00;39.20;;;21.10;;
62535;SDS011;63050;47.514;18.920;2023-12-20T04:58:00;34.70;;;21.20;;
62535;SDS011;63050;47.514;18.920;2023-12-20T05:03:01;45.10;;;22.90;;
62535;SDS011;63050;47.514;18.920;2023-12-20T05:08:02;48.00;;;25.20;;
62535;SDS011;63050;47.514;18.920;2023-12-20T05:13:04;42.60;;;21.90;;
62535;SDS011;63050;47.514;18.920;2023-12-20T05:18:05;43.90;;;23.60;;
62535;SDS011;63050;47.514;18.920;2023-12-20T05:23:09;46.60;;;23.80;;
62535;SDS011;63050;47.514;18.920;2023-12-20T05:28:12;48.60;;;24.50;;
62535;SDS011;63050;47.514;18.920;2023-12-20T05:33:13;42.60;;;23.50;;
62535;SDS011;63050;47.514;18.920;2023-12-20T05:38:14;44.50;;;22.60;;
62535;SDS011;63050;47.514;18.920;2023-12-20T05:43:14;40.30;;;20.90;;
62535;SDS011;63050;47.514;18.920;2023-12-20T05:48:15;40.00;;;22.40;;
62535;SDS011;63050;47.514;18.920;2023-12-20T05:53:16;39.90;;;22.70;;
62535;SDS011;63050;47.514;18.920;2023-12-20T05:58:17;40.10;;;22.80;;
62535;SDS011;63050;47.514;18.920;2023-12-20T06:03:18;43.70;;;24.40;;
62535;SDS011;63050;47.514;18.920;2023-12-20T06:08:22;40.50;;;21.20;;
62535;SDS011;63050;47.514;18.920;2023-12-20T06:13:23;35.90;;;20.60;;
62535;SDS011;63050;47.514;18.920;2023-12-20T06:18:24;36.90;;;20.10;;
62535;SDS011;63050;47.514;18.920;2023-12-20T06:23:25;31.60;;;18.70;;
62535;SDS011;63050;47.514;18.920;2023-12-20T06:28:26;31.90;;;17.50;;
62535;SDS011;63050;47.514;18.920;2023-12-20T06:33:27;38.60;;;20.20;;
62535;SDS011;63050;47.514;18.920;2023-12-20T06:38:28;38.00;;;21.00;;
62535;SDS011;63050;47.514;18.920;2023-12-20T06:43:29;37.40;;;19.80;;
62535;SDS011;63050;47.514;18.920;2023-12-20T06:48:30;35.40;;;17.40;;
62535;SDS011;63050;47.514;18.920;2023-12-20T06:53:32;34.00;;;17.80;;
62535;SDS011;63050;47.514;18.920;2023-12-20T06:58:32;36.80;;;18.70;;
62535;SDS011;63050;47.514;18.920;2023-12-20T07:03:33;38.10;;;18.80;;
62535;SDS011;63050;47.514;18.920;2023-12-20T07:08:34;39.00;;;19.70;;
62535;SDS011;63050;47.514;18.920;2023-12-20T07:13:35;31.70;;;16.80;;
62535;SDS011;63050;47.514;18.920;2023-12-20T07:18:36;32.10;;;16.90;;
62535;SDS011;63050;47.514;18.920;2023-12-20T07:23:38;33.50;;;16.90;;
62535;SDS011;63050;47.514;18.920;2023-12-20T07:28:38;43.00;;;22.10;;
62535;SDS011;63050;47.514;18.920;2023-12-20T07:33:39;40.70;;;20.40;;
62535;SDS011;63050;47.514;18.920;2023-12-20T07:38:40;41.40;;;19.90;;
62535;SDS011;63050;47.514;18.920;2023-12-20T07:43:42;39.40;;;20.50;;
62535;SDS011;63050;47.514;18.920;2023-12-20T07:48:43;40.70;;;21.80;;
62535;SDS011;63050;47.514;18.920;2023-12-20T07:53:45;39.80;;;19.90;;
62535;SDS011;63050;47.514;18.920;2023-12-20T07:58:46;38.50;;;21.10;;
62535;SDS011;63050;47.514;18.920;2023-12-20T08:03:49;42.90;;;21.90;;
62535;SDS011;63050;47.514;18.920;2023-12-20T08:08:50;39.10;;;21.50;;
62535;SDS011;63050;47.514;18.920;2023-12-20T08:14:16;40.30;;;22.20;;
62535;SDS011;63050;47.514;18.920;2023-12-20T08:19:17;35.40;;;21.10;;
62535;SDS011;63050;47.514;18.920;2023-12-20T08:24:18;38.80;;;24.10;;
62535;SDS011;63050;47.514;18.920;2023-12-20T08:29:19;43.70;;;23.70;;
62535;SDS011;63050;47.514;18.920;2023-12-20T08:34:21;38.10;;;22.50;;
62535;SDS011;63050;47.514;18.920;2023-12-20T08:39:22;50.10;;;30.60;;
62535;SDS011;63050;47.514;18.920;2023-12-20T08:44:23;43.00;;;27.50;;
62535;SDS011;63050;47.514;18.920;2023-12-20T08:49:24;51.70;;;29.00;;
62535;SDS011;63050;47.514;18.920;2023-12-20T08:54:26;50.60;;;30.50;;
62535;SDS011;63050;47.514;18.920;2023-12-20T08:59:26;50.30;;;31.40;;
62535;SDS011;63050;47.514;18.920;2023-12-20T09:04:27;50.70;;;31.30;;
62535;SDS011;63050;47.514;18.920;2023-12-20T09:09:29;49.40;;;30.80;;
62535;SDS011;63050;47.514;18.920;2023-12-20T09:14:32;52.90;;;34.00;;
62535;SDS011;63050;47.514;18.920;2023-12-20T09:19:33;47.80;;;34.10;;
62535;SDS011;63050;47.514;18.920;2023-12-20T09:24:34;59.60;;;38.80;;
62535;SDS011;63050;47.514;18.920;2023-12-20T09:29:35;66.20;;;41.50;;
62535;SDS011;63050;47.514;18.920;2023-12-20T09:34:36;69.70;;;44.00;;
62535;SDS011;63050;47.514;18.920;2023-12-20T09:39:38;64.90;;;39.00;;
62535;SDS011;63050;47.514;18.920;2023-12-20T09:44:38;48.00;;;32.30;;
62535;SDS011;63050;47.514;18.920;2023-12-20T09:50:08;50.00;;;31.30;;
62535;SDS011;63050;47.514;18.920;2023-12-20T09:55:17;43.70;;;30.30;;
62535;SDS011;63050;47.514;18.920;2023-12-20T10:00:19;44.20;;;28.50;;
62535;SDS011;63050;47.514;18.920;2023-12-20T10:05:20;39.30;;;28.00;;
62535;SDS011;63050;47.514;18.920;2023-12-20T10:10:32;37.60;;;24.00;;
62535;SDS011;63050;47.514;18.920;2023-12-20T10:15:33;34.40;;;24.20;;
62535;SDS011;63050;47.514;18.920;2023-12-20T10:20:34;41.10;;;27.80;;
62535;SDS011;63050;47.514;18.920;2023-12-20T10:25:35;33.30;;;24.60;;
62535;SDS011;63050;47.514;18.920;2023-12-20T10:30:36;32.60;;;24.10;;
62535;SDS011;63050;47.514;18.920;2023-12-20T10:35:38;24.40;;;18.70;;
62535;SDS011;63050;47.514;18.920;2023-12-20T10:40:39;5.20;;;3.80;;
62535;SDS011;63050;47.514;18.920;2023-12-20T10:45:41;5.40;;;3.90;;
62535;SDS011;63050;47.514;18.920;2023-12-20T10:50:43;5.90;;;4.40;;
62535;SDS011;63050;47.514;18.920;2023-12-20T10:55:44;7.90;;;5.80;;
62535;SDS011;63050;47.514;18.920;2023-12-20T11:00:46;7.70;;;5.80;;
62535;SDS011;63050;47.514;18.920;2023-12-20T11:06:33;7.80;;;5.70;;
62535;SDS011;63050;47.514;18.920;2023-12-20T11:11:32;7.40;;;5.40;;
62535;SDS011;63050;47.514;18.920;2023-12-20T11:17:08;8.50;;;5.80;;
62535;SDS011;63050;47.514;18.920;2023-12-20T11:22:11;9.00;;;6.30;;
62535;SDS011;63050;47.514;18.920;2023-12-20T11:27:12;6.80;;;5.80;;
62535;SDS011;63050;47.514;18.920;2023-12-20T11:42:37;6.70;;;5.40;;
62535;SDS011;63050;47.514;18.920;2023-12-20T11:47:39;6.20;;;5.30;;
62535;SDS011;63050;47.514;18.920;2023-12-20T11:52:41;6.40;;;5.30;;
62535;SDS011;63050;47.514;18.920;2023-12-20T11:57:42;7.10;;;5.30;;
62535;SDS011;63050;47.514;18.920;2023-12-20T12:02:45;5.80;;;4.80;;
62535;SDS011;63050;47.514;18.920;2023-12-20T12:07:55;4.60;;;4.10;;
62535;SDS011;63050;47.514;18.920;2023-12-20T12:12:56;5.30;;;3.80;;
62535;SDS011;63050;47.514;18.920;2023-12-20T12:17:57;5.20;;;4.20;;
62535;SDS011;63050;47.514;18.920;2023-12-20T12:23:03;5.80;;;4.50;;
62535;SDS011;63050;47.514;18.920;2023-12-20T12:28:05;7.60;;;4.80;;
62535;SDS011;63050;47.514;18.920;2023-12-20T12:33:06;6.40;;;4.80;;
62535;SDS011;63050;47.514;18.920;2023-12-20T12:38:07;7.00;;;5.50;;
62535;SDS011;63050;47.514;18.920;2023-12-20T12:43:09;6.40;;;4.80;;
62535;SDS011;63050;47.514;18.920;2023-12-20T12:48:10;6.80;;;5.50;;
62535;SDS011;63050;47.514;18.920;2023-12-20T12:53:11;6.10;;;5.10;;
62535;SDS011;63050;47.514;18.920;2023-12-20T12:58:11;9.50;;;7.20;;
62535;SDS011;63050;47.514;18.920;2023-12-20T13:03:12;19.10;;;11.30;;
62535;SDS011;63050;47.514;18.920;2023-12-20T13:08:13;7.80;;;5.50;;
62535;SDS011;63050;47.514;18.920;2023-12-20T13:13:15;9.60;;;5.50;;
62535;SDS011;63050;47.514;18.920;2023-12-20T13:18:16;7.80;;;5.80;;
62535;SDS011;63050;47.514;18.920;2023-12-20T13:23:19;12.90;;;5.90;;
62535;SDS011;63050;47.514;18.920;2023-12-20T13:28:19;7.40;;;5.60;;
62535;SDS011;63050;47.514;18.920;2023-12-20T13:33:20;8.90;;;5.90;;
62535;SDS011;63050;47.514;18.920;2023-12-20T13:38:22;7.00;;;5.50;;
62535;SDS011;63050;47.514;18.920;2023-12-20T13:43:23;7.70;;;5.70;;
62535;SDS011;63050;47.514;18.920;2023-12-20T13:48:24;8.20;;;5.30;;
62535;SDS011;63050;47.514;18.920;2023-12-20T13:53:25;7.40;;;5.40;;
62535;SDS011;63050;47.514;18.920;2023-12-20T13:58:26;8.60;;;6.10;;
62535;SDS011;63050;47.514;18.920;2023-12-20T14:03:27;10.20;;;7.10;;
62535;SDS011;63050;47.514;18.920;2023-12-20T14:08:28;9.50;;;6.80;;
62535;SDS011;63050;47.514;18.920;2023-12-20T14:13:29;10.30;;;7.00;;
62535;SDS011;63050;47.514;18.920;2023-12-20T14:18:30;10.70;;;7.50;;
62535;SDS011;63050;47.514;18.920;2023-12-20T14:23:31;12.10;;;8.50;;
62535;SDS011;63050;47.514;18.920;2023-12-20T14:28:33;8.70;;;6.00;;
62535;SDS011;63050;47.514;18.920;2023-12-20T14:33:35;5.90;;;4.80;;
62535;SDS011;63050;47.514;18.920;2023-12-20T14:38:36;7.40;;;5.10;;
62535;SDS011;63050;47.514;18.920;2023-12-20T14:43:38;8.40;;;6.10;;
62535;SDS011;63050;47.514;18.920;2023-12-20T14:48:39;7.60;;;4.90;;
62535;SDS011;63050;47.514;18.920;2023-12-20T14:53:39;5.60;;;3.70;;
62535;SDS011;63050;47.514;18.920;2023-12-20T14:58:40;6.40;;;4.20;;
62535;SDS011;63050;47.514;18.920;2023-12-20T15:03:41;5.10;;;3.80;;
62535;SDS011;63050;47.514;18.920;2023-12-20T15:08:42;5.20;;;3.70;;
62535;SDS011;63050;47.514;18.920;2023-12-20T15:13:43;5.70;;;3.90;;
62535;SDS011;63050;47.514;18.920;2023-12-20T15:18:44;6.40;;;4.30;;
62535;SDS011;63050;47.514;18.920;2023-12-20T15:23:45;5.70;;;4.30;;
62535;SDS011;63050;47.514;18.920;2023-12-20T15:28:56;5.60;;;4.10;;
62535;SDS011;63050;47.514;18.920;2023-12-20T15:33:57;6.60;;;3.90;;
62535;SDS011;63050;47.514;18.920;2023-12-20T15:38:58;5.50;;;3.90;;
62535;SDS011;63050;47.514;18.920;2023-12-20T15:43:58;6.90;;;3.80;;
62535;SDS011;63050;47.514;18.920;2023-12-20T15:48:59;7.00;;;4.00;;
62535;SDS011;63050;47.514;18.920;2023-12-20T15:54:00;5.50;;;3.50;;
62535;SDS011;63050;47.514;18.920;2023-12-20T15:59:06;6.30;;;3.40;;
62535;SDS011;63050;47.514;18.920;2023-12-20T16:04:08;5.20;;;3.50;;
62535;SDS011;63050;47.514;18.920;2023-12-20T16:09:09;6.10;;;3.70;;
62535;SDS011;63050;47.514;18.920;2023-12-20T16:14:10;6.30;;;4.50;;
62535;SDS011;63050;47.514;18.920;2023-12-20T16:19:14;5.20;;;4.40;;
62535;SDS011;63050;47.514;18.920;2023-12-20T16:24:39;5.80;;;4.10;;
62535;SDS011;63050;47.514;18.920;2023-12-20T16:29:41;7.70;;;4.70;;
62535;SDS011;63050;47.514;18.920;2023-12-20T16:34:42;6.10;;;3.70;;
62535;SDS011;63050;47.514;18.920;2023-12-20T16:39:44;6.00;;;4.00;;
62535;SDS011;63050;47.514;18.920;2023-12-20T16:44:46;5.00;;;3.50;;
62535;SDS011;63050;47.514;18.920;2023-12-20T16:49:47;5.50;;;3.90;;
62535;SDS011;63050;47.514;18.920;2023-12-20T16:54:49;4.00;;;3.20;;
62535;SDS011;63050;47.514;18.920;2023-12-20T16:59:51;4.00;;;3.20;;
62535;SDS011;63050;47.514;18.920;2023-12-20T17:04:54;4.80;;;3.40;;
62535;SDS011;63050;47.514;18.920;2023-12-20T17:09:56;4.90;;;3.30;;
62535;SDS011;63050;47.514;18.920;2023-12-20T17:14:58;4.10;;;2.80;;
62535;SDS011;63050;47.514;18.920;2023-12-20T17:20:02;4.10;;;3.00;;
62535;SDS011;63050;47.514;18.920;2023-12-20T17:25:04;3.40;;;2.60;;
62535;SDS011;63050;47.514;18.920;2023-12-20T17:30:07;4.10;;;2.60;;
62535;SDS011;63050;47.514;18.920;2023-12-20T17:35:13;4.20;;;2.90;;
62535;SDS011;63050;47.514;18.920;2023-12-20T17:40:15;10.30;;;6.60;;
62535;SDS011;63050;47.514;18.920;2023-12-20T17:45:18;11.60;;;8.30;;
62535;SDS011;63050;47.514;18.920;2023-12-20T17:50:20;11.10;;;8.00;;
62535;SDS011;63050;47.514;18.920;2023-12-20T17:55:22;10.90;;;6.90;;
62535;SDS011;63050;47.514;18.920;2023-12-20T18:00:24;8.60;;;5.50;;
62535;SDS011;63050;47.514;18.920;2023-12-20T18:05:29;8.60;;;5.70;;
62535;SDS011;63050;47.514;18.920;2023-12-20T18:10:33;8.80;;;6.30;;
62535;SDS011;63050;47.514;18.920;2023-12-20T18:15:34;9.40;;;5.70;;
62535;SDS011;63050;47.514;18.920;2023-12-20T18:20:37;13.10;;;10.00;;
62535;SDS011;63050;47.514;18.920;2023-12-20T18:25:39;21.50;;;15.10;;
62535;SDS011;63050;47.514;18.920;2023-12-20T18:30:41;15.50;;;11.80;;
62535;SDS011;63050;47.514;18.920;2023-12-20T18:35:43;14.30;;;11.10;;
62535;SDS011;63050;47.514;18.920;2023-12-20T18:40:46;21.50;;;14.00;;
62535;SDS011;63050;47.514;18.920;2023-12-20T18:45:49;25.80;;;15.30;;
62535;SDS011;63050;47.514;18.920;2023-12-20T18:50:51;24.40;;;14.80;;
62535;SDS011;63050;47.514;18.920;2023-12-20T18:55:53;18.80;;;13.20;;
62535;SDS011;63050;47.514;18.920;2023-12-20T19:00:55;21.90;;;12.60;;
62535;SDS011;63050;47.514;18.920;2023-12-20T19:05:57;14.00;;;10.50;;
62535;SDS011;63050;47.514;18.920;2023-12-20T19:11:01;17.20;;;10.70;;
62535;SDS011;63050;47.514;18.920;2023-12-20T19:16:06;12.80;;;7.70;;
62535;SDS011;63050;47.514;18.920;2023-12-20T19:21:08;13.90;;;9.50;;
62535;SDS011;63050;47.514;18.920;2023-12-20T19:26:11;15.40;;;10.50;;
62535;SDS011;63050;47.514;18.920;2023-12-20T19:31:13;13.70;;;9.20;;
62535;SDS011;63050;47.514;18.920;2023-12-20T19:36:15;13.30;;;9.00;;
62535;SDS011;63050;47.514;18.920;2023-12-20T19:41:17;8.00;;;6.00;;
62535;SDS011;63050;47.514;18.920;2023-12-20T19:46:20;9.30;;;6.70;;
62535;SDS011;63050;47.514;18.920;2023-12-20T19:51:22;11.70;;;7.60;;
62535;SDS011;63050;47.514;18.920;2023-12-20T19:56:26;9.90;;;6.50;;
62535;SDS011;63050;47.514;18.920;2023-12-20T20:01:28;8.90;;;5.40;;
62535;SDS011;63050;47.514;18.920;2023-12-20T20:06:30;8.10;;;5.60;;
62535;SDS011;63050;47.514;18.920;2023-12-20T20:11:33;9.30;;;5.80;;
62535;SDS011;63050;47.514;18.920;2023-12-20T20:16:35;7.60;;;4.90;;
62535;SDS011;63050;47.514;18.920;2023-12-20T20:21:38;8.60;;;5.60;;
62535;SDS011;63050;47.514;18.920;2023-12-20T20:26:40;11.00;;;7.30;;
62535;SDS011;63050;47.514;18.920;2023-12-20T20:31:43;10.80;;;7.10;;
62535;SDS011;63050;47.514;18.920;2023-12-20T20:36:45;9.70;;;6.00;;
62535;SDS011;63050;47.514;18.920;2023-12-20T20:41:47;11.20;;;5.60;;
62535;SDS011;63050;47.514;18.920;2023-12-20T20:46:50;7.90;;;5.60;;
62535;SDS011;63050;47.514;18.920;2023-12-20T20:51:52;8.00;;;5.40;;
62535;SDS011;63050;47.514;18.920;2023-12-20T20:56:55;9.20;;;5.10;;
62535;SDS011;63050;47.514;18.920;2023-12-20T21:01:56;8.30;;;6.20;;
62535;SDS011;63050;47.514;18.920;2023-12-20T21:06:57;8.40;;;5.80;;
62535;SDS011;63050;47.514;18.920;2023-12-20T21:11:58;9.10;;;6.30;;
62535;SDS011;63050;47.514;18.920;2023-12-20T21:17:00;9.70;;;6.50;;
62535;SDS011;63050;47.514;18.920;2023-12-20T21:22:01;8.80;;;6.10;;
62535;SDS011;63050;47.514;18.920;2023-12-20T21:27:02;7.90;;;5.90;;
62535;SDS011;63050;47.514;18.920;2023-12-20T21:32:04;13.40;;;7.60;;
62535;SDS011;63050;47.514;18.920;2023-12-20T21:37:05;9.50;;;6.90;;
62535;SDS011;63050;47.514;18.920;2023-12-20T21:42:06;10.90;;;6.30;;
62535;SDS011;63050;47.514;18.920;2023-12-20T21:47:08;12.00;;;8.00;;
62535;SDS011;63050;47.514;18.920;2023-12-20T21:52:09;11.20;;;7.50;;
62535;SDS011;63050;47.514;18.920;2023-12-20T21:57:10;8.60;;;5.60;;
62535;SDS011;63050;47.514;18.920;2023-12-20T22:02:11;8.50;;;6.00;;
62535;SDS011;63050;47.514;18.920;2023-12-20T22:07:12;7.60;;;6.00;;
62535;SDS011;63050;47.514;18.920;2023-12-20T22:12:14;8.90;;;6.40;;
62535;SDS011;63050;47.514;18.920;2023-12-20T22:17:16;11.00;;;6.80;;
62535;SDS011;63050;47.514;18.920;2023-12-20T22:22:17;11.20;;;7.20;;
62535;SDS011;63050;47.514;18.920;2023-12-20T22:27:17;8.00;;;5.50;;
62535;SDS011;63050;47.514;18.920;2023-12-20T22:32:19;9.10;;;6.60;;
62535;SDS011;63050;47.514;18.920;2023-12-20T22:37:20;8.70;;;6.60;;
62535;SDS011;63050;47.514;18.920;2023-12-20T22:42:21;8.10;;;6.40;;
62535;SDS011;63050;47.514;18.920;2023-12-20T22:47:22;8.20;;;6.40;;
62535;SDS011;63050;47.514;18.920;2023-12-20T22:52:24;10.10;;;6.50;;
62535;SDS011;63050;47.514;18.920;2023-12-20T22:57:24;10.00;;;7.00;;
62535;SDS011;63050;47.514;18.920;2023-12-20T23:02:26;9.90;;;7.20;;
62535;SDS011;63050;47.514;18.920;2023-12-20T23:07:26;10.80;;;7.10;;
62535;SDS011;63050;47.514;18.920;2023-12-20T23:12:27;6.80;;;4.40;;
62535;SDS011;63050;47.514;18.920;2023-12-20T23:17:53;6.30;;;3.90;;
62535;SDS011;63050;47.514;18.920;2023-12-20T23:22:56;5.70;;;3.60;;
62535;SDS011;63050;47.514;18.920;2023-12-20T23:27:57;6.00;;;3.60;;
62535;SDS011;63050;47.514;18.920;2023-12-20T23:32:58;5.30;;;3.80;;
62535;SDS011;63050;47.514;18.920;2023-12-20T23:37:59;4.80;;;3.60;;
62535;SDS011;63050;47.514;18.920;2023-12-20T23:43:00;3.90;;;3.30;;
62535;SDS011;63050;47.514;18.920;2023-12-20T23:48:01;6.40;;;4.30;;
62535;SDS011;63050;47.514;18.920;2023-12-20T23:53:02;6.40;;;4.30;;
62535;SDS011;63050;47.514;18.920;2023-12-20T23:58:03;7.00;;;5.20;;
